createdAt,value
2022-09-21T10:21:32.000Z,34.79999923706055
2022-09-21T10:21:42.000Z,34.79999923706055
2022-09-21T10:21:52.000Z,34.599998474121094
2022-09-21T10:22:02.000Z,34.400001525878906
2022-09-21T10:22:12.000Z,34.400001525878906
2022-09-21T10:22:22.000Z,34.29999923706055
2022-09-21T10:22:32.000Z,34.099998474121094
2022-09-21T10:22:42.000Z,34.099998474121094
2022-09-21T10:22:52.000Z,33.900001525878906
2022-09-21T10:23:02.000Z,33.900001525878906
2022-09-21T10:23:12.000Z,33.79999923706055
2022-09-21T10:23:23.000Z,33.599998474121094
2022-09-21T10:23:32.000Z,33.599998474121094
2022-09-21T10:23:42.000Z,33.400001525878906
2022-09-21T10:23:52.000Z,33.400001525878906
2022-09-21T10:24:02.000Z,33.20000076293945
2022-09-21T10:24:12.000Z,33.099998474121094
2022-09-21T10:24:22.000Z,33.099998474121094
2022-09-21T10:24:32.000Z,32.900001525878906
2022-09-21T10:24:42.000Z,32.900001525878906
2022-09-21T10:24:52.000Z,32.70000076293945
2022-09-21T10:25:02.000Z,32.599998474121094
2022-09-21T10:25:12.000Z,32.400001525878906
2022-09-21T10:25:22.000Z,32.20000076293945
2022-09-21T10:25:32.000Z,32.20000076293945
2022-09-21T10:25:42.000Z,32.099998474121094
2022-09-21T10:25:52.000Z,32.099998474121094
2022-09-21T10:26:02.000Z,31.899999618530273
2022-09-21T10:26:12.000Z,31.700000762939453
2022-09-21T10:26:22.000Z,31.700000762939453
2022-09-21T10:26:32.000Z,31.5
2022-09-21T10:26:42.000Z,31.399999618530273
2022-09-21T10:26:52.000Z,31.399999618530273
2022-09-21T10:27:02.000Z,31.200000762939453
2022-09-21T10:27:12.000Z,31.0
2022-09-21T10:27:22.000Z,31.0
2022-09-21T10:27:32.000Z,30.899999618530273
2022-09-21T10:27:42.000Z,30.899999618530273
2022-09-21T10:27:52.000Z,30.700000762939453
2022-09-21T10:28:02.000Z,30.5
2022-09-21T10:28:12.000Z,30.5
2022-09-21T10:28:22.000Z,30.399999618530273
2022-09-21T10:28:32.000Z,30.399999618530273
2022-09-21T10:28:42.000Z,30.200000762939453
2022-09-21T10:28:52.000Z,30.200000762939453
2022-09-21T10:29:02.000Z,30.0
2022-09-21T10:29:12.000Z,30.0
2022-09-21T10:29:22.000Z,30.0
2022-09-21T10:29:32.000Z,29.700000762939453
2022-09-21T10:29:42.000Z,29.299999237060547
2022-09-21T10:29:52.000Z,29.700000762939453
2022-09-21T10:30:02.000Z,29.799999237060547
2022-09-21T10:30:12.000Z,29.700000762939453
2022-09-21T10:30:22.000Z,29.700000762939453
2022-09-21T10:30:32.000Z,29.5
2022-09-21T10:30:42.000Z,29.5
2022-09-21T10:30:52.000Z,29.5
2022-09-21T10:31:02.000Z,29.299999237060547
2022-09-21T10:31:12.000Z,29.299999237060547
2022-09-21T10:31:22.000Z,29.299999237060547
2022-09-21T10:31:32.000Z,29.299999237060547
2022-09-21T10:31:42.000Z,29.299999237060547
2022-09-21T10:31:52.000Z,29.0
2022-09-21T10:32:02.000Z,29.0
2022-09-21T10:32:12.000Z,28.799999237060547
2022-09-21T10:32:22.000Z,28.799999237060547
2022-09-21T10:32:32.000Z,28.700000762939453
2022-09-21T10:32:42.000Z,28.700000762939453
2022-09-21T10:32:52.000Z,28.5
2022-09-21T10:33:02.000Z,28.299999237060547
2022-09-21T10:33:12.000Z,28.299999237060547
2022-09-21T10:33:22.000Z,28.100000381469727
2022-09-21T10:33:32.000Z,28.100000381469727
2022-09-21T10:33:42.000Z,28.100000381469727
2022-09-21T10:33:52.000Z,28.0
2022-09-21T10:34:02.000Z,28.0
2022-09-21T10:34:12.000Z,27.799999237060547
2022-09-21T10:34:22.000Z,27.799999237060547
2022-09-21T10:34:32.000Z,27.799999237060547
2022-09-21T10:34:42.000Z,27.799999237060547
2022-09-21T10:34:52.000Z,27.600000381469727
2022-09-21T10:35:02.000Z,27.600000381469727
2022-09-21T10:35:12.000Z,27.600000381469727
2022-09-21T10:35:22.000Z,27.5
2022-09-21T10:35:32.000Z,27.5
2022-09-21T10:35:42.000Z,27.299999237060547
2022-09-21T10:35:52.000Z,27.299999237060547
2022-09-21T10:36:02.000Z,27.100000381469727
2022-09-21T10:36:12.000Z,27.0
2022-09-21T10:36:22.000Z,15.399999618530273
2022-09-21T10:36:32.000Z,15.899999618530273
2022-09-21T10:36:42.000Z,19.299999237060547
2022-09-21T10:36:52.000Z,10.0
2022-09-21T10:37:02.000Z,8.100000381469727
2022-09-21T10:37:12.000Z,7.800000190734863
2022-09-21T10:37:22.000Z,8.100000381469727
2022-09-21T10:37:32.000Z,8.800000190734863
2022-09-21T10:37:42.000Z,8.100000381469727
2022-09-21T10:37:52.000Z,7.800000190734863
2022-09-21T10:38:02.000Z,7.599999904632568
2022-09-21T10:38:12.000Z,7.599999904632568
2022-09-21T10:38:22.000Z,7.400000095367432
2022-09-21T10:38:32.000Z,7.400000095367432
2022-09-21T10:38:42.000Z,7.400000095367432
2022-09-21T10:38:51.000Z,7.400000095367432
2022-09-21T10:39:01.000Z,7.400000095367432
2022-09-21T10:39:11.000Z,7.400000095367432
2022-09-21T10:39:21.000Z,7.800000190734863
2022-09-21T10:39:31.000Z,8.300000190734863
2022-09-21T10:39:41.000Z,9.100000381469727
2022-09-21T10:39:51.000Z,9.100000381469727
2022-09-21T10:40:01.000Z,8.800000190734863
2022-09-21T10:40:11.000Z,8.800000190734863
2022-09-21T10:40:21.000Z,9.300000190734863
2022-09-21T10:40:31.000Z,14.0
2022-09-21T10:40:41.000Z,17.299999237060547
2022-09-21T10:40:51.000Z,13.399999618530273
2022-09-21T10:41:01.000Z,10.300000190734863
2022-09-21T10:41:11.000Z,10.0
2022-09-21T10:41:21.000Z,11.5
2022-09-21T10:41:31.000Z,17.799999237060547
2022-09-21T10:41:41.000Z,23.899999618530273
2022-09-21T10:41:52.000Z,24.700000762939453
2022-09-21T10:42:02.000Z,24.600000381469727
2022-09-21T10:42:12.000Z,24.399999618530273
2022-09-21T10:42:22.000Z,20.700000762939453
2022-09-21T10:42:32.000Z,23.899999618530273
2022-09-21T10:42:42.000Z,24.100000381469727
2022-09-21T10:42:52.000Z,24.100000381469727
2022-09-21T10:43:02.000Z,23.899999618530273
2022-09-21T10:43:12.000Z,23.899999618530273
2022-09-21T10:43:22.000Z,23.899999618530273
2022-09-21T10:43:32.000Z,23.700000762939453
2022-09-21T10:43:42.000Z,23.700000762939453
2022-09-21T10:43:52.000Z,23.600000381469727
2022-09-21T10:44:02.000Z,23.600000381469727
2022-09-21T10:44:12.000Z,22.700000762939453
2022-09-21T10:44:22.000Z,23.200000762939453
2022-09-21T10:44:32.000Z,23.200000762939453
2022-09-21T10:44:42.000Z,23.100000381469727
2022-09-21T10:44:52.000Z,23.100000381469727
2022-09-21T10:45:02.000Z,23.200000762939453
2022-09-21T10:45:12.000Z,23.100000381469727
2022-09-21T10:45:22.000Z,23.100000381469727
2022-09-21T10:45:32.000Z,23.100000381469727
2022-09-21T10:45:42.000Z,23.100000381469727
2022-09-21T10:45:52.000Z,22.899999618530273
2022-09-21T10:46:02.000Z,22.899999618530273
2022-09-21T10:46:12.000Z,22.899999618530273
2022-09-21T10:46:22.000Z,22.700000762939453
2022-09-21T10:46:32.000Z,22.5
2022-09-21T10:46:42.000Z,17.100000381469727
2022-09-21T10:46:52.000Z,10.300000190734863
2022-09-21T10:47:02.000Z,9.100000381469727
2022-09-21T10:47:12.000Z,9.0
2022-09-21T10:47:22.000Z,12.300000190734863
2022-09-21T10:47:32.000Z,18.299999237060547
2022-09-21T10:47:42.000Z,19.700000762939453
2022-09-21T10:47:52.000Z,19.299999237060547
2022-09-21T10:48:02.000Z,21.5
2022-09-21T10:48:12.000Z,22.0
2022-09-21T10:48:22.000Z,21.700000762939453
2022-09-21T10:48:32.000Z,20.0
2022-09-21T10:48:42.000Z,19.700000762939453
2022-09-21T10:48:52.000Z,20.700000762939453
2022-09-21T10:49:02.000Z,21.0
2022-09-21T10:49:12.000Z,20.799999237060547
2022-09-21T10:49:22.000Z,18.799999237060547
2022-09-21T10:49:32.000Z,20.200000762939453
2022-09-21T10:49:42.000Z,19.700000762939453
2022-09-21T10:49:52.000Z,19.799999237060547
2022-09-21T10:50:02.000Z,20.5
2022-09-21T10:50:12.000Z,20.299999237060547
2022-09-21T10:50:22.000Z,20.299999237060547
2022-09-21T10:50:32.000Z,20.299999237060547
2022-09-21T10:50:42.000Z,20.200000762939453
2022-09-21T10:50:52.000Z,20.200000762939453
2022-09-21T10:51:02.000Z,20.0
2022-09-21T10:51:12.000Z,20.0
2022-09-21T10:51:22.000Z,19.5
2022-09-21T10:51:32.000Z,19.700000762939453
2022-09-21T10:51:42.000Z,19.5
2022-09-21T10:51:52.000Z,19.5
2022-09-21T10:52:02.000Z,19.299999237060547
2022-09-21T10:52:12.000Z,16.299999237060547
2022-09-21T10:52:22.000Z,13.0
2022-09-21T10:52:32.000Z,11.699999809265137
2022-09-21T10:52:42.000Z,8.399999618530273
2022-09-21T10:52:52.000Z,11.5
2022-09-21T10:53:02.000Z,10.699999809265137
2022-09-21T10:53:12.000Z,9.300000190734863
2022-09-21T10:53:22.000Z,11.0
2022-09-21T10:53:32.000Z,16.299999237060547
2022-09-21T10:53:42.000Z,18.100000381469727
2022-09-21T10:53:52.000Z,19.299999237060547
2022-09-21T10:54:02.000Z,19.5
2022-09-21T10:54:12.000Z,19.299999237060547
2022-09-21T10:54:22.000Z,19.100000381469727
2022-09-21T10:54:32.000Z,19.100000381469727
2022-09-21T10:54:42.000Z,18.299999237060547
2022-09-21T10:54:52.000Z,13.199999809265137
2022-09-21T10:55:02.000Z,11.5
2022-09-21T10:55:11.000Z,8.100000381469727
2022-09-21T10:55:21.000Z,7.800000190734863
2022-09-21T10:55:31.000Z,7.400000095367432
2022-09-21T10:55:41.000Z,7.599999904632568
2022-09-21T10:56:01.000Z,7.599999904632568
2022-09-21T10:56:21.000Z,7.400000095367432
2022-09-21T10:56:31.000Z,7.400000095367432
2022-09-21T10:56:41.000Z,7.400000095367432
2022-09-21T10:56:51.000Z,7.400000095367432
2022-09-21T10:57:01.000Z,7.400000095367432
2022-09-21T10:57:11.000Z,7.400000095367432
2022-09-21T10:57:21.000Z,7.400000095367432
2022-09-21T10:57:31.000Z,7.300000190734863
2022-09-21T10:57:41.000Z,7.400000095367432
2022-09-21T10:57:51.000Z,7.099999904632568
2022-09-21T10:58:01.000Z,7.400000095367432
2022-09-21T10:58:11.000Z,7.400000095367432
2022-09-21T10:58:21.000Z,7.400000095367432
2022-09-21T10:58:31.000Z,7.400000095367432
2022-09-21T10:58:41.000Z,7.400000095367432
2022-09-21T10:58:52.000Z,7.400000095367432
2022-09-21T10:59:02.000Z,7.400000095367432
2022-09-21T10:59:12.000Z,7.400000095367432
2022-09-21T10:59:22.000Z,7.400000095367432
2022-09-21T10:59:32.000Z,7.400000095367432
2022-09-21T10:59:42.000Z,7.599999904632568
2022-09-21T10:59:52.000Z,7.599999904632568
2022-09-21T11:00:02.000Z,7.599999904632568
2022-09-21T11:00:12.000Z,7.599999904632568
2022-09-21T11:00:22.000Z,7.599999904632568
2022-09-21T11:00:32.000Z,7.599999904632568
2022-09-21T11:00:42.000Z,7.800000190734863
2022-09-21T11:00:52.000Z,7.800000190734863
2022-09-21T11:01:02.000Z,7.900000095367432
2022-09-21T11:01:12.000Z,8.300000190734863
2022-09-21T11:01:22.000Z,13.199999809265137
2022-09-21T11:01:32.000Z,16.600000381469727
2022-09-21T11:01:42.000Z,17.299999237060547
2022-09-21T11:01:52.000Z,17.600000381469727
2022-09-21T11:02:02.000Z,17.799999237060547
2022-09-21T11:02:12.000Z,17.799999237060547
2022-09-21T11:02:22.000Z,17.799999237060547
2022-09-21T11:02:32.000Z,17.799999237060547
2022-09-21T11:02:42.000Z,18.100000381469727
2022-09-21T11:02:52.000Z,18.100000381469727
2022-09-21T11:03:02.000Z,18.299999237060547
2022-09-21T11:03:12.000Z,18.299999237060547
2022-09-21T11:03:22.000Z,18.299999237060547
2022-09-21T11:03:32.000Z,18.299999237060547
2022-09-21T11:03:42.000Z,18.299999237060547
2022-09-21T11:03:52.000Z,18.299999237060547
2022-09-21T11:04:02.000Z,18.299999237060547
2022-09-21T11:04:12.000Z,18.299999237060547
2022-09-21T11:04:22.000Z,18.299999237060547
2022-09-21T11:04:32.000Z,18.299999237060547
2022-09-21T11:04:42.000Z,18.299999237060547
2022-09-21T11:04:52.000Z,18.100000381469727
2022-09-21T11:05:02.000Z,18.299999237060547
2022-09-21T11:05:12.000Z,18.299999237060547
2022-09-21T11:05:22.000Z,18.299999237060547
2022-09-21T11:05:31.000Z,18.100000381469727
2022-09-21T12:17:19.000Z,6.400000095367432
2022-09-21T12:17:29.000Z,6.400000095367432
2022-09-21T12:40:04.000Z,17.799999237060547
2022-09-21T12:40:14.000Z,18.0
2022-09-21T12:40:24.000Z,18.0
2022-09-21T12:40:34.000Z,17.799999237060547
2022-09-21T12:53:58.000Z,16.100000381469727
2022-09-21T12:54:08.000Z,16.100000381469727
2022-09-21T12:54:18.000Z,15.899999618530273
2022-09-21T12:54:27.000Z,12.300000190734863
2022-09-21T12:54:37.000Z,10.0
2022-09-21T12:54:47.000Z,8.300000190734863
2022-09-21T12:54:57.000Z,7.599999904632568
2022-09-21T12:55:07.000Z,7.599999904632568
2022-09-21T12:55:17.000Z,7.599999904632568
2022-09-21T12:55:27.000Z,7.599999904632568
2022-09-21T12:55:37.000Z,7.599999904632568
2022-09-21T12:55:47.000Z,7.599999904632568
2022-09-21T12:55:57.000Z,7.599999904632568
2022-09-21T12:56:07.000Z,7.599999904632568
2022-09-21T12:56:17.000Z,7.599999904632568
2022-09-21T12:57:47.000Z,7.800000190734863
2022-09-21T12:58:24.000Z,12.0
2022-09-21T12:58:34.000Z,15.100000381469727
2022-09-21T12:58:44.000Z,15.100000381469727
2022-09-21T12:58:54.000Z,15.699999809265137
2022-09-21T12:59:04.000Z,16.399999618530273
2022-09-21T12:59:14.000Z,16.399999618530273
2022-09-21T12:59:24.000Z,16.799999237060547
2022-09-21T12:59:34.000Z,16.899999618530273
2022-09-21T12:59:44.000Z,17.100000381469727
2022-09-21T12:59:54.000Z,17.100000381469727
2022-09-21T13:00:04.000Z,17.100000381469727
2022-09-21T13:00:14.000Z,17.100000381469727
2022-09-21T13:00:24.000Z,16.899999618530273
2022-09-21T13:00:34.000Z,16.799999237060547
2022-09-21T13:00:44.000Z,16.100000381469727
2022-09-21T13:00:54.000Z,16.899999618530273
2022-09-21T13:01:04.000Z,16.899999618530273
2022-09-21T13:01:14.000Z,17.100000381469727
2022-09-21T13:01:24.000Z,17.299999237060547
2022-09-21T13:01:34.000Z,17.299999237060547
2022-09-21T13:01:44.000Z,17.299999237060547
2022-09-21T13:01:54.000Z,17.299999237060547
2022-09-21T13:02:04.000Z,17.399999618530273
2022-09-21T13:02:14.000Z,17.399999618530273
2022-09-21T13:02:24.000Z,17.399999618530273
2022-09-21T13:02:34.000Z,17.399999618530273
2022-09-21T13:31:03.000Z,20.5
2022-09-21T13:31:33.000Z,20.5
2022-09-21T13:31:43.000Z,20.5
2022-09-21T13:31:53.000Z,20.5
2022-09-21T13:32:03.000Z,20.5
2022-09-21T13:32:13.000Z,20.700000762939453
2022-09-21T13:32:23.000Z,20.700000762939453
2022-09-21T13:32:33.000Z,20.700000762939453
2022-09-21T13:32:43.000Z,20.700000762939453
2022-09-21T13:32:53.000Z,20.700000762939453
2022-09-21T13:33:03.000Z,20.700000762939453
2022-09-21T13:33:13.000Z,20.700000762939453
2022-09-21T13:33:23.000Z,20.700000762939453
2022-09-21T13:33:33.000Z,20.700000762939453
2022-09-21T13:33:43.000Z,20.5
2022-09-21T13:33:53.000Z,20.5
2022-09-21T13:34:03.000Z,20.700000762939453
2022-09-21T13:34:13.000Z,20.700000762939453
2022-09-21T13:34:23.000Z,20.799999237060547
2022-09-21T13:34:33.000Z,20.799999237060547
2022-09-21T13:34:43.000Z,20.799999237060547
2022-09-21T13:34:53.000Z,20.799999237060547
2022-09-21T13:35:03.000Z,21.0
2022-09-21T13:35:13.000Z,21.0
2022-09-21T13:35:23.000Z,21.0
2022-09-21T13:35:33.000Z,21.0
2022-09-21T13:35:43.000Z,21.200000762939453
2022-09-21T13:36:07.000Z,21.200000762939453
2022-09-21T13:36:13.000Z,21.200000762939453
2022-09-21T13:36:23.000Z,21.200000762939453
2022-09-21T13:36:33.000Z,21.399999618530273
2022-09-21T13:36:43.000Z,21.399999618530273
2022-09-21T13:36:53.000Z,21.399999618530273
2022-09-21T13:37:03.000Z,21.5
2022-09-21T13:37:13.000Z,21.5
2022-09-21T13:37:23.000Z,21.5
2022-09-21T13:37:33.000Z,21.5
2022-09-21T13:37:43.000Z,21.700000762939453
2022-09-21T13:37:53.000Z,18.600000381469727
2022-09-21T13:38:03.000Z,9.800000190734863
2022-09-21T13:38:13.000Z,7.300000190734863
2022-09-21T13:38:23.000Z,7.099999904632568
2022-09-21T13:38:33.000Z,6.900000095367432
2022-09-21T13:38:43.000Z,7.099999904632568
2022-09-21T13:38:53.000Z,7.099999904632568
2022-09-21T13:39:03.000Z,6.900000095367432
2022-09-21T13:39:13.000Z,6.900000095367432
2022-09-21T13:39:23.000Z,6.900000095367432
2022-09-21T13:39:33.000Z,6.900000095367432
2022-09-21T13:39:43.000Z,6.900000095367432
2022-09-21T13:39:53.000Z,6.900000095367432
2022-09-21T13:40:03.000Z,6.900000095367432
2022-09-21T13:40:13.000Z,6.900000095367432
2022-09-21T13:40:23.000Z,6.900000095367432
2022-09-21T13:40:33.000Z,7.099999904632568
2022-09-21T13:40:43.000Z,7.099999904632568
2022-09-21T13:40:53.000Z,7.099999904632568
2022-09-21T13:41:03.000Z,7.099999904632568
2022-09-21T13:41:13.000Z,7.099999904632568
2022-09-21T13:41:23.000Z,7.099999904632568
2022-09-21T13:41:43.000Z,7.300000190734863
2022-09-21T13:42:13.000Z,7.400000095367432
2022-09-21T13:42:23.000Z,7.900000095367432
2022-09-21T13:42:33.000Z,10.100000381469727
2022-09-21T13:42:43.000Z,14.699999809265137
2022-09-21T13:42:53.000Z,19.0
2022-09-21T13:43:03.000Z,21.0
2022-09-21T13:43:13.000Z,22.0
2022-09-21T13:43:23.000Z,22.200000762939453
2022-09-21T14:01:03.000Z,21.5
2022-09-21T14:01:53.000Z,21.200000762939453
2022-09-21T14:02:03.000Z,21.200000762939453
2022-09-21T14:02:13.000Z,21.200000762939453
2022-09-21T14:02:23.000Z,21.0
2022-09-21T14:02:33.000Z,21.0
2022-09-21T14:02:43.000Z,21.0
2022-09-21T14:02:53.000Z,20.799999237060547
2022-09-21T14:03:03.000Z,20.5
2022-09-21T14:03:13.000Z,18.5
2022-09-21T14:03:23.000Z,14.699999809265137
2022-09-21T14:03:33.000Z,12.5
2022-09-21T14:03:43.000Z,14.199999809265137
2022-09-21T14:03:53.000Z,15.199999809265137
2022-09-21T14:04:03.000Z,15.699999809265137
2022-09-21T14:04:13.000Z,17.600000381469727
2022-09-21T14:04:23.000Z,19.0
2022-09-21T14:04:33.000Z,20.0
2022-09-21T14:04:43.000Z,20.200000762939453
2022-09-21T14:04:53.000Z,20.200000762939453
2022-09-21T14:05:03.000Z,20.299999237060547
2022-09-21T14:05:13.000Z,20.200000762939453
2022-09-21T14:05:23.000Z,20.200000762939453
2022-09-21T14:05:33.000Z,20.299999237060547
2022-09-21T14:05:43.000Z,20.200000762939453
2022-09-21T14:05:53.000Z,20.200000762939453
2022-09-21T14:06:03.000Z,20.200000762939453
2022-09-21T14:06:13.000Z,20.200000762939453
2022-09-21T14:06:23.000Z,20.200000762939453
2022-09-21T14:06:33.000Z,20.200000762939453
2022-09-21T14:06:43.000Z,20.200000762939453
2022-09-21T14:06:53.000Z,20.200000762939453
2022-09-21T14:07:03.000Z,20.200000762939453
2022-09-21T14:07:13.000Z,20.0
2022-09-21T14:07:23.000Z,20.0
2022-09-21T14:07:33.000Z,20.0
2022-09-21T14:07:43.000Z,20.0
2022-09-21T14:07:53.000Z,20.0
2022-09-21T14:08:03.000Z,20.0
2022-09-21T14:08:13.000Z,20.0
2022-09-21T14:08:23.000Z,20.0
2022-09-21T14:08:33.000Z,20.0
2022-09-21T14:08:43.000Z,20.0
2022-09-21T14:08:53.000Z,20.0
2022-09-21T14:09:03.000Z,20.0
2022-09-21T14:09:13.000Z,20.0
2022-09-21T14:09:23.000Z,20.0
2022-09-21T14:09:33.000Z,20.0
2022-09-21T14:09:43.000Z,20.0
2022-09-21T14:09:53.000Z,19.799999237060547
2022-09-21T14:10:03.000Z,19.799999237060547
2022-09-21T14:10:13.000Z,19.700000762939453
2022-09-21T14:10:23.000Z,19.299999237060547
2022-09-21T14:10:33.000Z,19.100000381469727
2022-09-21T14:10:43.000Z,18.5
2022-09-21T14:10:53.000Z,16.399999618530273
2022-09-21T14:11:03.000Z,14.600000381469727
2022-09-21T14:11:13.000Z,13.199999809265137
2022-09-21T14:11:23.000Z,11.800000190734863
2022-09-21T14:11:33.000Z,10.300000190734863
2022-09-21T14:11:43.000Z,9.300000190734863
2022-09-21T14:11:53.000Z,8.800000190734863
2022-09-21T14:12:03.000Z,8.800000190734863
2022-09-21T14:12:13.000Z,8.800000190734863
2022-09-21T14:12:23.000Z,9.100000381469727
2022-09-21T14:12:33.000Z,9.5
2022-09-21T14:12:43.000Z,10.0
2022-09-21T14:12:53.000Z,9.800000190734863
2022-09-21T14:13:03.000Z,9.600000381469727
2022-09-21T14:13:13.000Z,9.5
2022-09-21T14:13:23.000Z,9.0
2022-09-21T14:13:33.000Z,8.600000381469727
2022-09-21T14:13:43.000Z,8.300000190734863
2022-09-21T14:13:53.000Z,8.300000190734863
2022-09-21T14:14:03.000Z,8.100000381469727
2022-09-21T14:14:13.000Z,8.100000381469727
2022-09-21T14:14:23.000Z,7.900000095367432
2022-09-21T14:14:33.000Z,7.900000095367432
2022-09-21T14:14:43.000Z,7.900000095367432
2022-09-21T14:14:53.000Z,7.800000190734863
2022-09-21T14:15:03.000Z,7.800000190734863
2022-09-21T14:15:13.000Z,7.800000190734863
2022-09-21T14:15:23.000Z,7.599999904632568
2022-09-21T14:15:33.000Z,7.599999904632568
2022-09-21T14:15:43.000Z,7.599999904632568
2022-09-21T14:15:53.000Z,7.599999904632568
2022-09-21T14:16:03.000Z,7.599999904632568
2022-09-21T14:16:13.000Z,7.599999904632568
2022-09-21T14:16:23.000Z,7.599999904632568
2022-09-21T14:16:33.000Z,7.599999904632568
2022-09-21T14:16:43.000Z,7.599999904632568
2022-09-21T14:16:53.000Z,7.400000095367432
2022-09-21T14:17:03.000Z,7.400000095367432
2022-09-21T14:17:13.000Z,7.599999904632568
2022-09-21T14:17:23.000Z,7.599999904632568
2022-09-21T14:17:33.000Z,7.599999904632568
2022-09-21T14:17:43.000Z,7.599999904632568
2022-09-21T14:17:53.000Z,7.599999904632568
2022-09-21T14:18:03.000Z,7.599999904632568
2022-09-21T14:18:13.000Z,7.599999904632568
2022-09-21T14:18:23.000Z,7.599999904632568
2022-09-21T14:18:33.000Z,7.599999904632568
2022-09-21T14:18:43.000Z,7.599999904632568
2022-09-21T14:18:53.000Z,7.599999904632568
2022-09-21T14:19:03.000Z,7.599999904632568
2022-09-21T14:19:13.000Z,7.599999904632568
2022-09-21T14:19:23.000Z,7.599999904632568
2022-09-21T14:19:33.000Z,7.599999904632568
2022-09-21T14:19:43.000Z,7.599999904632568
2022-09-21T14:19:53.000Z,7.599999904632568
2022-09-21T14:20:03.000Z,7.599999904632568
2022-09-21T14:20:13.000Z,7.599999904632568
2022-09-21T14:20:23.000Z,7.400000095367432
2022-09-21T14:20:33.000Z,7.400000095367432
2022-09-21T14:20:43.000Z,7.400000095367432
2022-09-21T14:20:53.000Z,7.400000095367432
2022-09-21T14:21:03.000Z,7.400000095367432
2022-09-21T14:21:13.000Z,7.400000095367432
2022-09-21T14:21:23.000Z,7.300000190734863
2022-09-21T14:21:33.000Z,7.300000190734863
2022-09-21T14:21:43.000Z,7.300000190734863
2022-09-21T14:21:54.000Z,7.300000190734863
2022-09-21T14:22:04.000Z,7.300000190734863
2022-09-21T14:22:14.000Z,7.300000190734863
2022-09-21T14:22:24.000Z,7.300000190734863
2022-09-21T14:22:34.000Z,7.099999904632568
2022-09-21T14:22:44.000Z,7.099999904632568
2022-09-21T14:22:54.000Z,7.099999904632568
2022-09-21T14:23:04.000Z,7.099999904632568
2022-09-21T14:23:14.000Z,7.099999904632568
2022-09-21T14:23:24.000Z,7.099999904632568
2022-09-21T14:23:34.000Z,6.900000095367432
2022-09-21T14:23:43.000Z,6.900000095367432
2022-09-21T14:23:53.000Z,6.900000095367432
2022-09-21T14:24:03.000Z,6.900000095367432
2022-09-21T14:24:13.000Z,6.900000095367432
2022-09-21T14:24:23.000Z,6.900000095367432
2022-09-21T14:24:33.000Z,6.900000095367432
2022-09-21T14:24:43.000Z,6.900000095367432
2022-09-21T14:24:53.000Z,6.900000095367432
2022-09-21T14:25:03.000Z,6.900000095367432
2022-09-21T14:25:13.000Z,7.099999904632568
2022-09-21T14:25:23.000Z,6.900000095367432
2022-09-21T14:25:33.000Z,7.099999904632568
2022-09-21T14:25:43.000Z,7.099999904632568
2022-09-21T14:25:53.000Z,7.099999904632568
2022-09-21T14:26:03.000Z,7.099999904632568
2022-09-21T14:26:13.000Z,7.099999904632568
2022-09-21T14:26:23.000Z,7.099999904632568
2022-09-21T14:26:33.000Z,7.099999904632568
2022-09-21T14:26:43.000Z,7.099999904632568
2022-09-21T14:26:53.000Z,7.099999904632568
2022-09-21T14:27:03.000Z,7.099999904632568
2022-09-21T14:27:13.000Z,7.300000190734863
2022-09-21T14:27:23.000Z,7.099999904632568
2022-09-21T14:27:33.000Z,7.099999904632568
2022-09-21T14:27:43.000Z,7.099999904632568
2022-09-21T14:27:53.000Z,7.099999904632568
2022-09-21T14:28:03.000Z,7.099999904632568
2022-09-21T14:28:13.000Z,7.099999904632568
2022-09-21T14:28:23.000Z,7.099999904632568
2022-09-21T14:28:33.000Z,7.099999904632568
2022-09-21T14:28:43.000Z,7.099999904632568
2022-09-21T14:28:53.000Z,7.099999904632568
2022-09-21T14:29:03.000Z,7.099999904632568
2022-09-21T14:29:13.000Z,6.900000095367432
2022-09-21T14:29:23.000Z,6.900000095367432
2022-09-21T14:29:33.000Z,6.900000095367432
2022-09-21T14:29:43.000Z,6.900000095367432
2022-09-21T14:29:53.000Z,6.900000095367432
2022-09-21T14:30:03.000Z,6.900000095367432
2022-09-21T14:30:13.000Z,6.900000095367432
2022-09-21T14:30:23.000Z,6.699999809265137
2022-09-21T14:30:33.000Z,6.699999809265137
2022-09-21T14:30:44.000Z,6.699999809265137
2022-09-21T14:30:54.000Z,6.699999809265137
2022-09-21T14:31:04.000Z,6.699999809265137
2022-09-21T14:31:14.000Z,6.699999809265137
2022-09-21T14:31:24.000Z,6.699999809265137
2022-09-21T14:31:34.000Z,6.699999809265137
2022-09-21T14:31:44.000Z,6.699999809265137
2022-09-21T14:31:54.000Z,6.699999809265137
2022-09-21T14:32:04.000Z,6.599999904632568
2022-09-21T14:32:14.000Z,6.599999904632568
2022-09-21T14:32:24.000Z,6.699999809265137
2022-09-21T14:32:34.000Z,6.699999809265137
2022-09-21T14:32:43.000Z,6.599999904632568
2022-09-21T14:32:53.000Z,6.599999904632568
2022-09-21T14:33:03.000Z,6.699999809265137
2022-09-21T14:33:13.000Z,6.599999904632568
2022-09-21T14:33:23.000Z,6.599999904632568
2022-09-21T14:33:33.000Z,6.699999809265137
2022-09-21T14:33:43.000Z,6.699999809265137
2022-09-21T14:33:53.000Z,6.599999904632568
2022-09-21T14:34:03.000Z,6.599999904632568
2022-09-21T14:34:13.000Z,6.599999904632568
2022-09-21T14:34:23.000Z,6.599999904632568
2022-09-21T14:34:33.000Z,6.599999904632568
2022-09-21T14:34:43.000Z,6.599999904632568